sensor_id;sensor_type;location;lat;lon;timestamp;temperature;humidity
5697;DHT22;2873;50.966;7.210;2023-03-01T00:02:07;2.30;99.90
5697;DHT22;2873;50.966;7.210;2023-03-01T00:04:33;2.30;99.90
5697;DHT22;2873;50.966;7.210;2023-03-01T00:07:01;2.20;99.90
5697;DHT22;2873;50.966;7.210;2023-03-01T00:09:26;2.20;99.90
5697;DHT22;2873;50.966;7.210;2023-03-01T00:11:51;2.20;99.90
5697;DHT22;2873;50.966;7.210;2023-03-01T00:14:17;2.10;99.90
5697;DHT22;2873;50.966;7.210;2023-03-01T00:16:44;2.00;99.90
5697;DHT22;2873;50.966;7.210;2023-03-01T00:19:12;2.00;99.90
5697;DHT22;2873;50.966;7.210;2023-03-01T00:21:38;1.90;99.90
5697;DHT22;2873;50.966;7.210;2023-03-01T00:24:04;1.90;99.90
5697;DHT22;2873;50.966;7.210;2023-03-01T00:26:30;1.80;99.90
5697;DHT22;2873;50.966;7.210;2023-03-01T00:28:57;1.70;99.90
5697;DHT22;2873;50.966;7.210;2023-03-01T00:31:25;1.60;99.90
5697;DHT22;2873;50.966;7.210;2023-03-01T00:33:56;1.60;99.90
5697;DHT22;2873;50.966;7.210;2023-03-01T00:36:23;1.60;99.90
5697;DHT22;2873;50.966;7.210;2023-03-01T00:38:49;1.60;99.90
5697;DHT22;2873;50.966;7.210;2023-03-01T00:41:16;1.60;99.90
5697;DHT22;2873;50.966;7.210;2023-03-01T00:43:43;1.60;99.90
5697;DHT22;2873;50.966;7.210;2023-03-01T00:46:14;1.60;99.90
5697;DHT22;2873;50.966;7.210;2023-03-01T00:48:40;1.60;99.90
5697;DHT22;2873;50.966;7.210;2023-03-01T00:53:35;1.60;99.90
5697;DHT22;2873;50.966;7.210;2023-03-01T00:56:01;1.60;99.90
5697;DHT22;2873;50.966;7.210;2023-03-01T00:58:27;1.50;99.90
5697;DHT22;2873;50.966;7.210;2023-03-01T01:00:52;1.50;99.90
5697;DHT22;2873;50.966;7.210;2023-03-01T01:03:18;1.50;99.90
5697;DHT22;2873;50.966;7.210;2023-03-01T01:05:44;1.40;99.90
5697;DHT22;2873;50.966;7.210;2023-03-01T01:08:10;1.40;99.90
5697;DHT22;2873;50.966;7.210;2023-03-01T01:10:36;1.40;99.90
5697;DHT22;2873;50.966;7.210;2023-03-01T01:13:01;1.30;99.90
5697;DHT22;2873;50.966;7.210;2023-03-01T01:15:27;1.20;99.90
5697;DHT22;2873;50.966;7.210;2023-03-01T01:17:53;1.20;99.90
5697;DHT22;2873;50.966;7.210;2023-03-01T01:20:18;1.20;99.90
5697;DHT22;2873;50.966;7.210;2023-03-01T01:22:44;1.20;99.90
5697;DHT22;2873;50.966;7.210;2023-03-01T01:25:09;1.20;99.90
5697;DHT22;2873;50.966;7.210;2023-03-01T01:27:35;1.20;99.90
5697;DHT22;2873;50.966;7.210;2023-03-01T01:30:01;1.20;99.90
5697;DHT22;2873;50.966;7.210;2023-03-01T01:32:28;1.20;99.90
5697;DHT22;2873;50.966;7.210;2023-03-01T01:34:53;1.20;99.90
5697;DHT22;2873;50.966;7.210;2023-03-01T01:37:19;1.20;99.90
5697;DHT22;2873;50.966;7.210;2023-03-01T01:39:44;1.10;99.90
5697;DHT22;2873;50.966;7.210;2023-03-01T01:42:18;1.20;99.90
5697;DHT22;2873;50.966;7.210;2023-03-01T01:44:46;1.20;99.90
5697;DHT22;2873;50.966;7.210;2023-03-01T01:47:18;1.20;99.90
5697;DHT22;2873;50.966;7.210;2023-03-01T01:49:54;1.20;99.90
5697;DHT22;2873;50.966;7.210;2023-03-01T01:52:26;1.20;99.90
5697;DHT22;2873;50.966;7.210;2023-03-01T01:55:13;1.20;99.90
5697;DHT22;2873;50.966;7.210;2023-03-01T01:57:49;1.10;99.90
5697;DHT22;2873;50.966;7.210;2023-03-01T02:00:22;1.10;99.90
5697;DHT22;2873;50.966;7.210;2023-03-01T02:02:51;1.10;99.90
5697;DHT22;2873;50.966;7.210;2023-03-01T02:08:18;1.00;99.90
5697;DHT22;2873;50.966;7.210;2023-03-01T02:10:45;1.00;99.90
5697;DHT22;2873;50.966;7.210;2023-03-01T02:13:12;1.00;99.90
5697;DHT22;2873;50.966;7.210;2023-03-01T02:15:39;0.90;99.90
5697;DHT22;2873;50.966;7.210;2023-03-01T02:18:09;0.90;99.90
5697;DHT22;2873;50.966;7.210;2023-03-01T02:20:44;0.80;99.90
5697;DHT22;2873;50.966;7.210;2023-03-01T02:23:13;0.70;99.90
5697;DHT22;2873;50.966;7.210;2023-03-01T02:25:55;0.70;99.90
5697;DHT22;2873;50.966;7.210;2023-03-01T02:28:36;0.70;99.90
5697;DHT22;2873;50.966;7.210;2023-03-01T02:31:05;0.60;99.90
5697;DHT22;2873;50.966;7.210;2023-03-01T02:33:49;0.60;99.90
5697;DHT22;2873;50.966;7.210;2023-03-01T02:36:20;0.60;99.90
5697;DHT22;2873;50.966;7.210;2023-03-01T02:38:47;0.60;99.90
5697;DHT22;2873;50.966;7.210;2023-03-01T02:41:15;0.60;99.90
5697;DHT22;2873;50.966;7.210;2023-03-01T02:43:42;0.60;99.90
5697;DHT22;2873;50.966;7.210;2023-03-01T02:46:15;0.50;99.90
5697;DHT22;2873;50.966;7.210;2023-03-01T02:48:50;0.50;99.90
5697;DHT22;2873;50.966;7.210;2023-03-01T02:56:40;0.40;99.90
5697;DHT22;2873;50.966;7.210;2023-03-01T02:59:06;0.40;99.90
5697;DHT22;2873;50.966;7.210;2023-03-01T03:01:32;0.40;99.90
5697;DHT22;2873;50.966;7.210;2023-03-01T03:04:10;0.40;99.90
5697;DHT22;2873;50.966;7.210;2023-03-01T03:06:37;0.40;99.90
5697;DHT22;2873;50.966;7.210;2023-03-01T03:09:03;0.40;99.90
5697;DHT22;2873;50.966;7.210;2023-03-01T03:11:30;0.40;99.90
5697;DHT22;2873;50.966;7.210;2023-03-01T03:13:57;0.40;99.90
5697;DHT22;2873;50.966;7.210;2023-03-01T03:16:23;0.30;99.90
5697;DHT22;2873;50.966;7.210;2023-03-01T03:18:48;0.30;99.90
5697;DHT22;2873;50.966;7.210;2023-03-01T03:21:15;0.40;99.90
5697;DHT22;2873;50.966;7.210;2023-03-01T03:23:41;0.40;99.90
5697;DHT22;2873;50.966;7.210;2023-03-01T03:26:07;0.30;99.90
5697;DHT22;2873;50.966;7.210;2023-03-01T03:28:34;0.40;99.90
5697;DHT22;2873;50.966;7.210;2023-03-01T03:31:00;0.40;99.90
5697;DHT22;2873;50.966;7.210;2023-03-01T03:33:30;0.40;99.90
5697;DHT22;2873;50.966;7.210;2023-03-01T03:35:55;0.30;99.90
5697;DHT22;2873;50.966;7.210;2023-03-01T03:38:21;0.40;99.90
5697;DHT22;2873;50.966;7.210;2023-03-01T03:40:48;0.30;99.90
5697;DHT22;2873;50.966;7.210;2023-03-01T03:43:19;0.30;99.90
5697;DHT22;2873;50.966;7.210;2023-03-01T03:45:46;0.30;99.90
5697;DHT22;2873;50.966;7.210;2023-03-01T03:48:12;0.30;99.90
5697;DHT22;2873;50.966;7.210;2023-03-01T03:50:39;0.30;99.90
5697;DHT22;2873;50.966;7.210;2023-03-01T03:53:10;0.30;99.90
5697;DHT22;2873;50.966;7.210;2023-03-01T03:55:36;0.30;99.90
5697;DHT22;2873;50.966;7.210;2023-03-01T03:58:05;0.30;99.90
5697;DHT22;2873;50.966;7.210;2023-03-01T04:00:33;0.30;99.90
5697;DHT22;2873;50.966;7.210;2023-03-01T04:03:00;0.30;99.90
5697;DHT22;2873;50.966;7.210;2023-03-01T04:05:26;0.20;99.90
5697;DHT22;2873;50.966;7.210;2023-03-01T04:07:52;0.30;99.90
5697;DHT22;2873;50.966;7.210;2023-03-01T04:10:30;0.20;99.90
5697;DHT22;2873;50.966;7.210;2023-03-01T04:12:56;0.30;99.90
5697;DHT22;2873;50.966;7.210;2023-03-01T04:15:22;0.30;99.90
5697;DHT22;2873;50.966;7.210;2023-03-01T04:17:51;0.30;99.90
5697;DHT22;2873;50.966;7.210;2023-03-01T04:20:24;0.20;99.90
5697;DHT22;2873;50.966;7.210;2023-03-01T04:23:11;0.20;99.90
5697;DHT22;2873;50.966;7.210;2023-03-01T04:25:42;0.20;99.90
5697;DHT22;2873;50.966;7.210;2023-03-01T04:28:09;0.10;99.90
5697;DHT22;2873;50.966;7.210;2023-03-01T04:30:35;0.10;99.90
5697;DHT22;2873;50.966;7.210;2023-03-01T04:33:09;0.20;99.90
5697;DHT22;2873;50.966;7.210;2023-03-01T04:35:35;0.10;99.90
5697;DHT22;2873;50.966;7.210;2023-03-01T04:38:01;0.10;99.90
5697;DHT22;2873;50.966;7.210;2023-03-01T04:40:27;0.10;99.90
5697;DHT22;2873;50.966;7.210;2023-03-01T04:42:53;0.10;99.90
5697;DHT22;2873;50.966;7.210;2023-03-01T04:45:19;0.10;99.90
5697;DHT22;2873;50.966;7.210;2023-03-01T04:47:45;0.10;99.90
5697;DHT22;2873;50.966;7.210;2023-03-01T04:50:16;0.10;99.90
5697;DHT22;2873;50.966;7.210;2023-03-01T04:52:44;0.10;99.90
5697;DHT22;2873;50.966;7.210;2023-03-01T04:55:10;0.10;99.90
5697;DHT22;2873;50.966;7.210;2023-03-01T04:57:36;0.10;99.90
5697;DHT22;2873;50.966;7.210;2023-03-01T05:00:03;0.10;99.90
5697;DHT22;2873;50.966;7.210;2023-03-01T05:02:54;0.00;99.90
5697;DHT22;2873;50.966;7.210;2023-03-01T05:05:26;0.00;99.90
5697;DHT22;2873;50.966;7.210;2023-03-01T05:07:53;0.00;99.90
5697;DHT22;2873;50.966;7.210;2023-03-01T05:10:19;0.00;99.90
5697;DHT22;2873;50.966;7.210;2023-03-01T05:12:45;0.00;99.90
5697;DHT22;2873;50.966;7.210;2023-03-01T05:15:11;0.00;99.90
5697;DHT22;2873;50.966;7.210;2023-03-01T05:17:37;0.00;99.90
5697;DHT22;2873;50.966;7.210;2023-03-01T05:20:03;0.00;99.90
5697;DHT22;2873;50.966;7.210;2023-03-01T05:22:33;-0.10;99.90
5697;DHT22;2873;50.966;7.210;2023-03-01T05:24:59;0.00;99.90
5697;DHT22;2873;50.966;7.210;2023-03-01T05:27:24;-0.10;99.90
5697;DHT22;2873;50.966;7.210;2023-03-01T05:29:50;-0.10;99.90
5697;DHT22;2873;50.966;7.210;2023-03-01T05:32:15;-0.10;99.90
5697;DHT22;2873;50.966;7.210;2023-03-01T05:34:41;-0.10;99.90
5697;DHT22;2873;50.966;7.210;2023-03-01T05:37:07;-0.10;99.90
5697;DHT22;2873;50.966;7.210;2023-03-01T05:39:33;-0.20;99.90
5697;DHT22;2873;50.966;7.210;2023-03-01T05:42:00;-0.20;99.90
5697;DHT22;2873;50.966;7.210;2023-03-01T05:44:28;-0.20;99.90
5697;DHT22;2873;50.966;7.210;2023-03-01T05:46:54;-0.20;99.90
5697;DHT22;2873;50.966;7.210;2023-03-01T05:49:20;-0.10;99.90
5697;DHT22;2873;50.966;7.210;2023-03-01T05:51:50;-0.20;99.90
5697;DHT22;2873;50.966;7.210;2023-03-01T05:54:16;-0.10;99.90
5697;DHT22;2873;50.966;7.210;2023-03-01T05:56:43;-0.10;99.90
5697;DHT22;2873;50.966;7.210;2023-03-01T05:59:09;-0.20;99.90
5697;DHT22;2873;50.966;7.210;2023-03-01T06:01:35;-0.10;99.90
5697;DHT22;2873;50.966;7.210;2023-03-01T06:04:02;-0.20;99.90
5697;DHT22;2873;50.966;7.210;2023-03-01T06:06:27;-0.20;99.90
5697;DHT22;2873;50.966;7.210;2023-03-01T06:08:53;-0.20;99.90
5697;DHT22;2873;50.966;7.210;2023-03-01T06:11:19;-0.10;99.90
5697;DHT22;2873;50.966;7.210;2023-03-01T06:13:46;-0.20;99.90
5697;DHT22;2873;50.966;7.210;2023-03-01T06:16:12;-0.20;99.90
5697;DHT22;2873;50.966;7.210;2023-03-01T06:18:38;-0.20;99.90
5697;DHT22;2873;50.966;7.210;2023-03-01T06:21:05;-0.20;99.90
5697;DHT22;2873;50.966;7.210;2023-03-01T06:23:32;-0.20;99.90
5697;DHT22;2873;50.966;7.210;2023-03-01T06:25:57;-0.20;99.90
5697;DHT22;2873;50.966;7.210;2023-03-01T06:28:23;-0.20;99.90
5697;DHT22;2873;50.966;7.210;2023-03-01T06:30:50;-0.20;99.90
5697;DHT22;2873;50.966;7.210;2023-03-01T06:33:17;-0.20;99.90
5697;DHT22;2873;50.966;7.210;2023-03-01T06:35:47;-0.20;99.90
5697;DHT22;2873;50.966;7.210;2023-03-01T06:38:13;-0.20;99.90
5697;DHT22;2873;50.966;7.210;2023-03-01T06:40:40;-0.20;99.90
5697;DHT22;2873;50.966;7.210;2023-03-01T06:43:06;-0.20;99.90
5697;DHT22;2873;50.966;7.210;2023-03-01T06:45:33;-0.20;99.90
5697;DHT22;2873;50.966;7.210;2023-03-01T06:48:06;-0.20;99.90
5697;DHT22;2873;50.966;7.210;2023-03-01T06:50:32;-0.20;99.90
5697;DHT22;2873;50.966;7.210;2023-03-01T06:52:58;-0.20;99.90
5697;DHT22;2873;50.966;7.210;2023-03-01T06:55:24;-0.10;99.90
5697;DHT22;2873;50.966;7.210;2023-03-01T06:57:57;-0.10;99.90
5697;DHT22;2873;50.966;7.210;2023-03-01T07:00:24;0.00;99.90
5697;DHT22;2873;50.966;7.210;2023-03-01T07:02:50;0.00;99.90
5697;DHT22;2873;50.966;7.210;2023-03-01T07:05:16;0.00;99.90
5697;DHT22;2873;50.966;7.210;2023-03-01T07:07:42;0.00;99.90
5697;DHT22;2873;50.966;7.210;2023-03-01T07:10:08;0.00;99.90
5697;DHT22;2873;50.966;7.210;2023-03-01T07:12:34;0.00;99.90
5697;DHT22;2873;50.966;7.210;2023-03-01T07:14:59;0.10;99.90
5697;DHT22;2873;50.966;7.210;2023-03-01T07:17:27;0.10;99.90
5697;DHT22;2873;50.966;7.210;2023-03-01T07:19:52;0.20;99.90
5697;DHT22;2873;50.966;7.210;2023-03-01T07:22:18;0.20;99.90
5697;DHT22;2873;50.966;7.210;2023-03-01T07:24:44;0.30;99.90
5697;DHT22;2873;50.966;7.210;2023-03-01T07:27:09;0.30;99.90
5697;DHT22;2873;50.966;7.210;2023-03-01T07:29:35;0.40;99.90
5697;DHT22;2873;50.966;7.210;2023-03-01T07:32:04;0.40;99.90
5697;DHT22;2873;50.966;7.210;2023-03-01T07:34:30;0.50;99.90
5697;DHT22;2873;50.966;7.210;2023-03-01T07:36:56;0.50;99.90
5697;DHT22;2873;50.966;7.210;2023-03-01T07:39:21;0.50;99.90
5697;DHT22;2873;50.966;7.210;2023-03-01T07:41:49;0.60;99.90
5697;DHT22;2873;50.966;7.210;2023-03-01T07:44:14;0.70;99.90
5697;DHT22;2873;50.966;7.210;2023-03-01T07:46:40;0.70;99.90
5697;DHT22;2873;50.966;7.210;2023-03-01T07:49:06;0.80;99.90
5697;DHT22;2873;50.966;7.210;2023-03-01T07:51:32;0.90;99.90
5697;DHT22;2873;50.966;7.210;2023-03-01T07:53:57;1.00;99.90
5697;DHT22;2873;50.966;7.210;2023-03-01T07:56:23;1.00;99.90
5697;DHT22;2873;50.966;7.210;2023-03-01T07:58:49;1.20;99.90
5697;DHT22;2873;50.966;7.210;2023-03-01T08:01:17;1.20;99.90
5697;DHT22;2873;50.966;7.210;2023-03-01T08:03:43;1.30;99.90
5697;DHT22;2873;50.966;7.210;2023-03-01T08:06:10;1.40;99.90
5697;DHT22;2873;50.966;7.210;2023-03-01T08:08:36;1.50;99.90
5697;DHT22;2873;50.966;7.210;2023-03-01T08:11:04;1.60;99.90
5697;DHT22;2873;50.966;7.210;2023-03-01T08:13:30;1.60;99.90
5697;DHT22;2873;50.966;7.210;2023-03-01T08:16:09;1.80;99.90
5697;DHT22;2873;50.966;7.210;2023-03-01T08:18:34;1.90;99.90
5697;DHT22;2873;50.966;7.210;2023-03-01T08:21:09;2.00;99.90
5697;DHT22;2873;50.966;7.210;2023-03-01T08:23:35;2.10;99.90
5697;DHT22;2873;50.966;7.210;2023-03-01T08:26:06;2.20;99.90
5697;DHT22;2873;50.966;7.210;2023-03-01T08:28:32;2.40;99.90
5697;DHT22;2873;50.966;7.210;2023-03-01T08:30:58;2.50;99.90
5697;DHT22;2873;50.966;7.210;2023-03-01T08:33:23;2.60;99.90
5697;DHT22;2873;50.966;7.210;2023-03-01T08:35:49;2.70;99.90
5697;DHT22;2873;50.966;7.210;2023-03-01T08:38:15;2.80;99.90
5697;DHT22;2873;50.966;7.210;2023-03-01T08:40:40;3.00;99.90
5697;DHT22;2873;50.966;7.210;2023-03-01T08:43:06;3.20;99.90
5697;DHT22;2873;50.966;7.210;2023-03-01T08:45:31;3.30;99.90
5697;DHT22;2873;50.966;7.210;2023-03-01T08:47:57;3.50;99.90
5697;DHT22;2873;50.966;7.210;2023-03-01T08:50:23;3.70;99.90
5697;DHT22;2873;50.966;7.210;2023-03-01T08:52:50;3.90;99.90
5697;DHT22;2873;50.966;7.210;2023-03-01T08:55:15;4.20;99.90
5697;DHT22;2873;50.966;7.210;2023-03-01T08:57:43;4.30;99.90
5697;DHT22;2873;50.966;7.210;2023-03-01T09:00:10;4.50;99.90
5697;DHT22;2873;50.966;7.210;2023-03-01T09:02:36;4.80;99.90
5697;DHT22;2873;50.966;7.210;2023-03-01T09:05:02;4.90;99.90
5697;DHT22;2873;50.966;7.210;2023-03-01T09:07:28;5.00;99.90
5697;DHT22;2873;50.966;7.210;2023-03-01T09:09:54;5.30;99.90
5697;DHT22;2873;50.966;7.210;2023-03-01T09:12:20;5.40;99.90
5697;DHT22;2873;50.966;7.210;2023-03-01T09:14:46;5.50;99.90
5697;DHT22;2873;50.966;7.210;2023-03-01T09:17:11;5.70;99.90
5697;DHT22;2873;50.966;7.210;2023-03-01T09:19:37;7.70;99.90
5697;DHT22;2873;50.966;7.210;2023-03-01T09:22:03;11.60;99.90
5697;DHT22;2873;50.966;7.210;2023-03-01T09:24:29;14.50;98.80
5697;DHT22;2873;50.966;7.210;2023-03-01T09:26:55;16.70;93.30
5697;DHT22;2873;50.966;7.210;2023-03-01T09:29:21;18.30;88.30
5697;DHT22;2873;50.966;7.210;2023-03-01T09:31:47;20.00;81.20
5697;DHT22;2873;50.966;7.210;2023-03-01T09:34:12;21.70;75.70
5697;DHT22;2873;50.966;7.210;2023-03-01T09:36:41;22.90;70.90
5697;DHT22;2873;50.966;7.210;2023-03-01T09:39:07;24.00;68.20
5697;DHT22;2873;50.966;7.210;2023-03-01T09:44:31;25.30;62.30
5697;DHT22;2873;50.966;7.210;2023-03-01T09:46:59;25.90;59.60
5697;DHT22;2873;50.966;7.210;2023-03-01T09:52:03;27.30;56.30
5697;DHT22;2873;50.966;7.210;2023-03-01T09:54:31;28.00;55.90
5697;DHT22;2873;50.966;7.210;2023-03-01T10:00:03;28.80;53.80
5697;DHT22;2873;50.966;7.210;2023-03-01T10:02:52;29.40;52.50
5697;DHT22;2873;50.966;7.210;2023-03-01T10:10:33;30.70;50.30
5697;DHT22;2873;50.966;7.210;2023-03-01T10:15:53;31.20;49.20
5697;DHT22;2873;50.966;7.210;2023-03-01T10:18:26;31.40;48.20
5697;DHT22;2873;50.966;7.210;2023-03-01T10:21:13;31.40;47.10
5697;DHT22;2873;50.966;7.210;2023-03-01T10:23:40;30.40;46.30
5697;DHT22;2873;50.966;7.210;2023-03-01T10:26:29;30.40;46.30
5697;DHT22;2873;50.966;7.210;2023-03-01T10:29:05;30.60;46.60
5697;DHT22;2873;50.966;7.210;2023-03-01T10:31:51;30.50;46.10
5697;DHT22;2873;50.966;7.210;2023-03-01T10:34:32;30.90;46.10
5697;DHT22;2873;50.966;7.210;2023-03-01T10:37:16;29.60;45.50
5697;DHT22;2873;50.966;7.210;2023-03-01T10:39:56;29.70;46.00
5697;DHT22;2873;50.966;7.210;2023-03-01T10:42:29;29.70;45.70
5697;DHT22;2873;50.966;7.210;2023-03-01T10:44:55;30.40;46.10
5697;DHT22;2873;50.966;7.210;2023-03-01T10:47:23;31.10;45.90
5697;DHT22;2873;50.966;7.210;2023-03-01T10:52:21;29.90;46.30
5697;DHT22;2873;50.966;7.210;2023-03-01T10:54:55;29.30;45.80
5697;DHT22;2873;50.966;7.210;2023-03-01T10:57:38;29.30;46.20
5697;DHT22;2873;50.966;7.210;2023-03-01T11:00:26;30.80;46.30
5697;DHT22;2873;50.966;7.210;2023-03-01T11:05:26;33.20;45.50
5697;DHT22;2873;50.966;7.210;2023-03-01T11:07:57;34.20;45.30
5697;DHT22;2873;50.966;7.210;2023-03-01T11:10:31;34.20;44.30
5697;DHT22;2873;50.966;7.210;2023-03-01T11:13:13;34.80;44.30
5697;DHT22;2873;50.966;7.210;2023-03-01T11:15:40;35.40;44.00
5697;DHT22;2873;50.966;7.210;2023-03-01T11:18:21;36.00;43.90
5697;DHT22;2873;50.966;7.210;2023-03-01T11:20:48;36.10;43.30
5697;DHT22;2873;50.966;7.210;2023-03-01T11:23:16;36.40;42.50
5697;DHT22;2873;50.966;7.210;2023-03-01T11:25:57;37.10;42.80
5697;DHT22;2873;50.966;7.210;2023-03-01T11:28:25;37.60;42.20
5697;DHT22;2873;50.966;7.210;2023-03-01T11:31:05;37.50;41.70
5697;DHT22;2873;50.966;7.210;2023-03-01T11:33:39;37.30;41.20
5697;DHT22;2873;50.966;7.210;2023-03-01T11:38:40;37.20;40.40
5697;DHT22;2873;50.966;7.210;2023-03-01T11:41:18;37.40;41.00
5697;DHT22;2873;50.966;7.210;2023-03-01T11:44:02;37.50;40.50
5697;DHT22;2873;50.966;7.210;2023-03-01T11:54:44;37.60;40.70
5697;DHT22;2873;50.966;7.210;2023-03-01T12:03:28;38.10;39.60
5697;DHT22;2873;50.966;7.210;2023-03-01T12:22:30;38.40;38.80
5697;DHT22;2873;50.966;7.210;2023-03-01T12:25:16;38.40;38.70
5697;DHT22;2873;50.966;7.210;2023-03-01T12:28:14;38.50;38.70
5697;DHT22;2873;50.966;7.210;2023-03-01T12:38:55;38.50;37.90
5697;DHT22;2873;50.966;7.210;2023-03-01T12:41:42;38.30;37.70
5697;DHT22;2873;50.966;7.210;2023-03-01T12:44:29;38.30;38.00
5697;DHT22;2873;50.966;7.210;2023-03-01T12:49:36;37.60;38.20
5697;DHT22;2873;50.966;7.210;2023-03-01T12:55:01;37.60;37.80
5697;DHT22;2873;50.966;7.210;2023-03-01T12:57:39;37.20;37.80
5697;DHT22;2873;50.966;7.210;2023-03-01T13:00:24;37.00;37.90
5697;DHT22;2873;50.966;7.210;2023-03-01T13:03:23;36.80;37.90
5697;DHT22;2873;50.966;7.210;2023-03-01T13:06:14;36.90;37.90
5697;DHT22;2873;50.966;7.210;2023-03-01T13:09:04;36.70;37.70
5697;DHT22;2873;50.966;7.210;2023-03-01T13:11:32;37.10;38.20
5697;DHT22;2873;50.966;7.210;2023-03-01T13:16:45;36.20;37.10
5697;DHT22;2873;50.966;7.210;2023-03-01T13:19:24;36.00;37.80
5697;DHT22;2873;50.966;7.210;2023-03-01T13:21:52;36.00;38.30
5697;DHT22;2873;50.966;7.210;2023-03-01T13:24:38;36.20;38.30
5697;DHT22;2873;50.966;7.210;2023-03-01T13:34:53;36.10;38.80
5697;DHT22;2873;50.966;7.210;2023-03-01T13:37:25;36.20;39.20
5697;DHT22;2873;50.966;7.210;2023-03-01T13:39:51;36.30;39.20
5697;DHT22;2873;50.966;7.210;2023-03-01T13:42:38;36.00;39.10
5697;DHT22;2873;50.966;7.210;2023-03-01T13:47:57;35.70;39.10
5697;DHT22;2873;50.966;7.210;2023-03-01T13:50:29;35.20;38.90
5697;DHT22;2873;50.966;7.210;2023-03-01T13:53:01;35.20;39.20
5697;DHT22;2873;50.966;7.210;2023-03-01T13:55:52;35.50;39.40
5697;DHT22;2873;50.966;7.210;2023-03-01T13:58:30;35.30;39.10
5697;DHT22;2873;50.966;7.210;2023-03-01T14:03:26;34.10;39.10
5697;DHT22;2873;50.966;7.210;2023-03-01T14:06:07;33.70;39.60
5697;DHT22;2873;50.966;7.210;2023-03-01T14:08:35;33.20;39.40
5697;DHT22;2873;50.966;7.210;2023-03-01T14:13:57;32.70;39.40
5697;DHT22;2873;50.966;7.210;2023-03-01T14:17:04;32.50;39.80
5697;DHT22;2873;50.966;7.210;2023-03-01T14:19:34;32.00;39.90
5697;DHT22;2873;50.966;7.210;2023-03-01T14:22:20;31.40;40.20
5697;DHT22;2873;50.966;7.210;2023-03-01T14:24:55;31.80;40.60
5697;DHT22;2873;50.966;7.210;2023-03-01T14:27:21;30.90;40.30
5697;DHT22;2873;50.966;7.210;2023-03-01T14:30:03;30.30;41.00
5697;DHT22;2873;50.966;7.210;2023-03-01T14:32:35;29.50;41.40
5697;DHT22;2873;50.966;7.210;2023-03-01T14:35:01;28.70;42.30
5697;DHT22;2873;50.966;7.210;2023-03-01T14:37:33;28.20;43.40
5697;DHT22;2873;50.966;7.210;2023-03-01T14:40:01;28.60;43.70
5697;DHT22;2873;50.966;7.210;2023-03-01T14:42:30;28.10;43.40
5697;DHT22;2873;50.966;7.210;2023-03-01T14:44:57;28.10;44.00
5697;DHT22;2873;50.966;7.210;2023-03-01T14:47:32;28.20;44.00
5697;DHT22;2873;50.966;7.210;2023-03-01T14:50:09;27.60;44.00
5697;DHT22;2873;50.966;7.210;2023-03-01T14:52:42;27.60;44.30
5697;DHT22;2873;50.966;7.210;2023-03-01T14:55:22;27.40;44.40
5697;DHT22;2873;50.966;7.210;2023-03-01T14:57:51;27.10;44.50
5697;DHT22;2873;50.966;7.210;2023-03-01T15:00:18;27.00;45.30
5697;DHT22;2873;50.966;7.210;2023-03-01T15:02:47;26.70;45.30
5697;DHT22;2873;50.966;7.210;2023-03-01T15:05:14;26.30;45.30
5697;DHT22;2873;50.966;7.210;2023-03-01T15:07:42;26.30;45.10
5697;DHT22;2873;50.966;7.210;2023-03-01T15:10:40;26.00;45.40
5697;DHT22;2873;50.966;7.210;2023-03-01T15:13:22;25.70;45.40
5697;DHT22;2873;50.966;7.210;2023-03-01T15:15:49;25.40;45.10
5697;DHT22;2873;50.966;7.210;2023-03-01T15:18:22;25.10;45.10
5697;DHT22;2873;50.966;7.210;2023-03-01T15:20:50;24.70;45.10
5697;DHT22;2873;50.966;7.210;2023-03-01T15:23:36;23.90;45.20
5697;DHT22;2873;50.966;7.210;2023-03-01T15:26:03;23.60;45.90
5697;DHT22;2873;50.966;7.210;2023-03-01T15:28:31;22.90;46.00
5697;DHT22;2873;50.966;7.210;2023-03-01T15:31:02;21.80;46.00
5697;DHT22;2873;50.966;7.210;2023-03-01T15:33:32;20.70;46.40
5697;DHT22;2873;50.966;7.210;2023-03-01T15:36:03;19.90;46.80
5697;DHT22;2873;50.966;7.210;2023-03-01T15:38:54;19.30;47.40
5697;DHT22;2873;50.966;7.210;2023-03-01T15:41:32;18.60;48.00
5697;DHT22;2873;50.966;7.210;2023-03-01T15:44:15;18.10;48.40
5697;DHT22;2873;50.966;7.210;2023-03-01T15:46:46;17.60;48.80
5697;DHT22;2873;50.966;7.210;2023-03-01T15:49:33;17.20;49.50
5697;DHT22;2873;50.966;7.210;2023-03-01T15:52:01;16.70;49.90
5697;DHT22;2873;50.966;7.210;2023-03-01T15:54:27;16.40;50.20
5697;DHT22;2873;50.966;7.210;2023-03-01T15:56:53;16.10;50.50
5697;DHT22;2873;50.966;7.210;2023-03-01T15:59:19;15.90;50.90
5697;DHT22;2873;50.966;7.210;2023-03-01T16:01:45;15.60;51.20
5697;DHT22;2873;50.966;7.210;2023-03-01T16:04:12;15.20;51.70
5697;DHT22;2873;50.966;7.210;2023-03-01T16:06:53;15.00;52.10
5697;DHT22;2873;50.966;7.210;2023-03-01T16:09:23;14.60;52.00
5697;DHT22;2873;50.966;7.210;2023-03-01T16:11:50;14.40;52.00
5697;DHT22;2873;50.966;7.210;2023-03-01T16:14:16;14.10;52.50
5697;DHT22;2873;50.966;7.210;2023-03-01T16:16:42;13.80;52.90
5697;DHT22;2873;50.966;7.210;2023-03-01T16:19:08;13.60;53.30
5697;DHT22;2873;50.966;7.210;2023-03-01T16:21:34;13.50;53.70
5697;DHT22;2873;50.966;7.210;2023-03-01T16:24:00;13.40;54.40
5697;DHT22;2873;50.966;7.210;2023-03-01T16:26:25;13.10;54.60
5697;DHT22;2873;50.966;7.210;2023-03-01T16:28:55;12.90;55.00
5697;DHT22;2873;50.966;7.210;2023-03-01T16:31:21;13.00;56.00
5697;DHT22;2873;50.966;7.210;2023-03-01T16:33:46;13.00;56.30
5697;DHT22;2873;50.966;7.210;2023-03-01T16:36:17;12.90;56.30
5697;DHT22;2873;50.966;7.210;2023-03-01T16:38:43;12.80;56.40
5697;DHT22;2873;50.966;7.210;2023-03-01T16:41:16;12.60;56.40
5697;DHT22;2873;50.966;7.210;2023-03-01T16:43:42;12.40;56.40
5697;DHT22;2873;50.966;7.210;2023-03-01T16:46:29;12.40;56.50
5697;DHT22;2873;50.966;7.210;2023-03-01T16:48:56;12.30;56.70
5697;DHT22;2873;50.966;7.210;2023-03-01T16:51:22;12.00;56.60
5697;DHT22;2873;50.966;7.210;2023-03-01T16:53:48;11.70;56.80
5697;DHT22;2873;50.966;7.210;2023-03-01T16:56:15;11.50;57.10
5697;DHT22;2873;50.966;7.210;2023-03-01T16:58:42;11.30;57.50
5697;DHT22;2873;50.966;7.210;2023-03-01T17:01:12;11.00;57.80
5697;DHT22;2873;50.966;7.210;2023-03-01T17:03:39;10.80;58.30
5697;DHT22;2873;50.966;7.210;2023-03-01T17:06:07;10.70;58.50
5697;DHT22;2873;50.966;7.210;2023-03-01T17:08:33;10.50;58.60
5697;DHT22;2873;50.966;7.210;2023-03-01T17:11:10;10.30;59.10
5697;DHT22;2873;50.966;7.210;2023-03-01T17:13:37;10.10;59.40
5697;DHT22;2873;50.966;7.210;2023-03-01T17:16:09;9.90;60.60
5697;DHT22;2873;50.966;7.210;2023-03-01T17:18:35;10.00;60.00
5697;DHT22;2873;50.966;7.210;2023-03-01T17:21:01;9.80;60.90
5697;DHT22;2873;50.966;7.210;2023-03-01T17:23:28;9.70;61.00
5697;DHT22;2873;50.966;7.210;2023-03-01T17:25:54;9.60;61.40
5697;DHT22;2873;50.966;7.210;2023-03-01T17:28:21;9.50;61.90
5697;DHT22;2873;50.966;7.210;2023-03-01T17:30:47;9.30;62.20
5697;DHT22;2873;50.966;7.210;2023-03-01T17:33:13;9.30;62.60
5697;DHT22;2873;50.966;7.210;2023-03-01T17:35:39;9.20;62.70
5697;DHT22;2873;50.966;7.210;2023-03-01T17:38:05;9.20;63.00
5697;DHT22;2873;50.966;7.210;2023-03-01T17:40:31;9.10;63.20
5697;DHT22;2873;50.966;7.210;2023-03-01T17:42:57;9.00;63.60
5697;DHT22;2873;50.966;7.210;2023-03-01T17:45:23;8.90;63.70
5697;DHT22;2873;50.966;7.210;2023-03-01T17:47:49;8.90;64.10
5697;DHT22;2873;50.966;7.210;2023-03-01T17:50:15;8.80;64.40
5697;DHT22;2873;50.966;7.210;2023-03-01T17:52:40;8.70;64.60
5697;DHT22;2873;50.966;7.210;2023-03-01T17:55:08;8.60;65.00
5697;DHT22;2873;50.966;7.210;2023-03-01T17:57:33;8.50;65.10
5697;DHT22;2873;50.966;7.210;2023-03-01T17:59:59;8.40;65.20
5697;DHT22;2873;50.966;7.210;2023-03-01T18:02:25;8.30;65.40
5697;DHT22;2873;50.966;7.210;2023-03-01T18:04:56;8.20;65.20